createdAt,value
2019-03-06T00:00:37.145Z,5.83
2019-03-06T00:03:05.711Z,6.23
2019-03-06T00:05:34.014Z,6.47
2019-03-06T00:08:02.302Z,7.13
2019-03-06T00:10:31.200Z,7.27
2019-03-06T00:12:59.464Z,7.20
2019-03-06T00:15:27.757Z,7.37
2019-03-06T00:17:56.094Z,7.70
2019-03-06T00:20:24.329Z,6.63
2019-03-06T00:22:52.592Z,6.87
2019-03-06T00:25:20.892Z,8.38
2019-03-06T00:27:49.174Z,8.38
2019-03-06T00:30:18.598Z,8.00
2019-03-06T00:32:46.880Z,8.30
2019-03-06T00:35:28.811Z,8.40
2019-03-06T00:37:57.112Z,9.10
2019-03-06T00:40:44.862Z,10.97
2019-03-06T00:43:13.160Z,9.48
2019-03-06T00:45:41.455Z,9.80
2019-03-06T00:48:09.734Z,10.90
2019-03-06T00:50:38.024Z,10.58
2019-03-06T00:53:06.383Z,11.08
2019-03-06T00:55:34.683Z,11.75
2019-03-06T00:58:02.977Z,11.23
2019-03-06T01:00:31.249Z,11.63
2019-03-06T01:02:59.543Z,11.73
2019-03-06T01:05:28.007Z,11.97
2019-03-06T01:07:56.300Z,10.80
2019-03-06T01:10:24.599Z,12.07
2019-03-06T01:12:52.953Z,10.50
2019-03-06T01:15:21.703Z,13.17
2019-03-06T01:17:50.173Z,11.13
2019-03-06T01:20:18.478Z,12.33
2019-03-06T01:22:46.767Z,12.60
2019-03-06T01:25:19.862Z,13.10
2019-03-06T01:27:48.155Z,12.87
2019-03-06T01:30:19.425Z,12.63
2019-03-06T01:32:49.449Z,13.60
2019-03-06T01:35:19.376Z,13.20
2019-03-06T01:37:55.079Z,13.50
2019-03-06T01:40:28.194Z,13.10
2019-03-06T01:43:00.772Z,13.90
2019-03-06T01:45:29.062Z,14.00
2019-03-06T01:47:57.345Z,14.28
2019-03-06T01:50:25.660Z,14.30
2019-03-06T01:52:53.946Z,14.20
2019-03-06T01:55:22.214Z,14.67
2019-03-06T01:57:50.530Z,16.07
2019-03-06T02:00:19.077Z,14.10
2019-03-06T02:02:47.365Z,16.33
2019-03-06T02:05:16.419Z,15.87
2019-03-06T02:07:44.785Z,13.87
2019-03-06T02:10:14.315Z,13.97
2019-03-06T02:12:42.978Z,15.98
2019-03-06T02:15:16.530Z,15.80
2019-03-06T02:17:44.899Z,15.28
2019-03-06T02:20:16.392Z,15.43
2019-03-06T02:22:44.717Z,15.80
2019-03-06T02:25:13.064Z,14.00
2019-03-06T02:27:41.637Z,15.10
2019-03-06T02:30:18.735Z,15.10
2019-03-06T02:32:47.026Z,16.80
2019-03-06T02:35:15.290Z,15.63
2019-03-06T02:37:43.588Z,16.63
2019-03-06T02:40:12.219Z,16.00
2019-03-06T02:42:40.536Z,16.30
2019-03-06T02:45:21.301Z,16.50
2019-03-06T02:47:49.583Z,15.72
2019-03-06T02:50:18.518Z,16.40
2019-03-06T02:52:46.856Z,18.45
2019-03-06T02:55:16.978Z,17.50
2019-03-06T02:57:52.615Z,17.17
2019-03-06T03:00:35.425Z,18.90
2019-03-06T03:03:09.766Z,18.47
2019-03-06T03:05:39.675Z,19.27
2019-03-06T03:08:08.026Z,18.00
2019-03-06T03:10:36.301Z,19.30
2019-03-06T03:13:04.603Z,19.90
2019-03-06T03:15:32.897Z,18.00
2019-03-06T03:18:01.324Z,19.73
2019-03-06T03:20:29.599Z,18.92
2019-03-06T03:22:57.890Z,17.37
2019-03-06T03:25:26.352Z,18.00
2019-03-06T03:27:54.639Z,17.57
2019-03-06T03:30:22.944Z,19.25
2019-03-06T03:32:51.197Z,18.27
2019-03-06T03:35:19.465Z,18.90
2019-03-06T03:37:47.738Z,18.10
2019-03-06T03:40:16.577Z,18.10
2019-03-06T03:42:44.895Z,19.03
2019-03-06T03:45:15.063Z,18.30
2019-03-06T03:47:43.428Z,16.60
2019-03-06T03:50:11.769Z,18.60
2019-03-06T03:52:40.406Z,18.87
2019-03-06T03:55:11.425Z,19.47
2019-03-06T03:57:39.727Z,20.57
2019-03-06T04:00:14.027Z,19.77
2019-03-06T04:02:42.398Z,20.70
2019-03-06T04:05:11.989Z,20.73
2019-03-06T04:07:40.296Z,19.57
2019-03-06T04:10:13.381Z,19.87
2019-03-06T04:12:41.661Z,19.07
2019-03-06T04:15:12.858Z,19.00
2019-03-06T04:17:41.148Z,19.90
2019-03-06T04:20:12.338Z,20.43
2019-03-06T04:22:40.634Z,20.65
2019-03-06T04:25:09.855Z,20.85
2019-03-06T04:27:38.136Z,19.83
2019-03-06T04:30:16.344Z,19.47
2019-03-06T04:32:44.688Z,20.10
2019-03-06T04:35:13.004Z,21.43
2019-03-06T04:37:41.278Z,21.10
2019-03-06T04:40:11.969Z,19.80
2019-03-06T04:42:40.720Z,21.62
2019-03-06T04:45:13.745Z,22.87
2019-03-06T04:47:57.118Z,20.48
2019-03-06T04:50:25.597Z,22.10
2019-03-06T04:52:53.878Z,22.67
2019-03-06T04:55:22.170Z,22.00
2019-03-06T04:57:50.457Z,23.10
2019-03-06T05:00:24.837Z,23.73
2019-03-06T05:02:53.259Z,22.20
2019-03-06T05:05:21.541Z,23.30
2019-03-06T05:07:49.871Z,21.02
2019-03-06T05:10:18.158Z,24.00
2019-03-06T05:12:46.460Z,23.03
2019-03-06T05:15:15.595Z,22.30
2019-03-06T05:17:48.310Z,22.60
2019-03-06T05:20:17.072Z,22.50
2019-03-06T05:22:45.350Z,24.20
2019-03-06T05:25:13.640Z,21.68
2019-03-06T05:27:41.925Z,21.27
2019-03-06T05:30:14.219Z,22.67
2019-03-06T05:32:42.535Z,23.30
2019-03-06T05:35:39.292Z,23.00
2019-03-06T05:38:13.547Z,23.27
2019-03-06T05:40:41.824Z,21.20
2019-03-06T05:43:10.101Z,23.85
2019-03-06T05:45:38.407Z,22.10
2019-03-06T05:48:06.696Z,24.15
2019-03-06T05:50:35.002Z,23.25
2019-03-06T05:53:03.276Z,22.70
2019-03-06T05:55:31.550Z,21.07
2019-03-06T05:57:59.861Z,21.80
2019-03-06T06:00:29.917Z,21.23
2019-03-06T06:02:58.210Z,22.13
2019-03-06T06:05:26.477Z,19.70
2019-03-06T06:07:54.781Z,20.88
2019-03-06T06:10:23.057Z,22.47
2019-03-06T06:12:51.515Z,20.60
2019-03-06T06:15:19.790Z,19.70
2019-03-06T06:17:48.082Z,22.20
2019-03-06T06:20:16.354Z,21.20
2019-03-06T06:22:48.998Z,19.65
2019-03-06T06:25:17.288Z,18.23
2019-03-06T06:27:45.592Z,18.63
2019-03-06T06:30:14.832Z,17.53
2019-03-06T06:32:43.132Z,19.20
2019-03-06T06:35:12.562Z,17.03
2019-03-06T06:37:41.030Z,19.07
2019-03-06T06:40:11.861Z,19.20
2019-03-06T06:42:40.139Z,16.27
2019-03-06T06:45:13.603Z,17.80
2019-03-06T06:48:10.362Z,15.90
2019-03-06T06:51:01.516Z,15.77
2019-03-06T06:53:36.973Z,16.15
2019-03-06T06:56:20.065Z,17.10
2019-03-06T06:58:57.384Z,14.53
2019-03-06T07:01:42.161Z,13.95
2019-03-06T07:04:27.055Z,15.40
2019-03-06T07:06:57.147Z,13.03
2019-03-06T07:09:27.076Z,13.50
2019-03-06T07:11:57.024Z,14.30
2019-03-06T07:14:35.753Z,14.13
2019-03-06T07:17:05.869Z,15.13
2019-03-06T07:19:35.789Z,14.07
2019-03-06T07:22:11.167Z,14.07
2019-03-06T07:24:58.686Z,14.47
2019-03-06T07:27:31.077Z,14.35
2019-03-06T07:30:03.629Z,13.38
2019-03-06T07:32:33.558Z,13.60
2019-03-06T07:35:55.755Z,12.28
2019-03-06T07:38:24.302Z,12.60
2019-03-06T07:40:56.872Z,12.67
2019-03-06T07:43:35.796Z,13.00
2019-03-06T07:46:21.583Z,10.40
2019-03-06T07:48:54.248Z,11.10
2019-03-06T07:51:24.151Z,11.48
2019-03-06T07:54:08.222Z,12.47
2019-03-06T07:56:41.503Z,11.27
2019-03-06T07:59:09.773Z,12.60
2019-03-06T08:01:41.183Z,10.80
2019-03-06T08:04:11.876Z,10.40
2019-03-06T08:06:41.879Z,10.43
2019-03-06T08:09:15.412Z,10.90
2019-03-06T08:12:00.458Z,10.35
2019-03-06T08:14:39.315Z,11.23
2019-03-06T08:17:09.232Z,10.73
2019-03-06T08:19:55.153Z,10.87
2019-03-06T08:22:30.856Z,11.60
2019-03-06T08:25:03.712Z,12.03
2019-03-06T08:27:31.985Z,10.90
2019-03-06T08:30:00.561Z,9.77
2019-03-06T08:32:29.895Z,11.78
2019-03-06T08:34:58.186Z,11.30
2019-03-06T08:37:26.480Z,11.10
2019-03-06T08:39:54.845Z,11.65
2019-03-06T08:42:23.137Z,11.33
2019-03-06T08:44:51.420Z,11.20
2019-03-06T08:47:33.479Z,11.07
2019-03-06T08:50:03.422Z,11.03
2019-03-06T08:52:33.360Z,11.30
2019-03-06T08:55:10.945Z,12.20
2019-03-06T08:57:40.992Z,11.70
2019-03-06T09:00:32.427Z,12.80
2019-03-06T09:03:03.874Z,11.67
2019-03-06T09:05:44.833Z,11.97
2019-03-06T09:08:33.931Z,10.87
2019-03-06T09:11:06.528Z,11.70
2019-03-06T09:13:36.897Z,12.47
2019-03-06T09:16:06.808Z,10.90
2019-03-06T09:18:39.645Z,13.93
2019-03-06T09:21:15.217Z,11.20
2019-03-06T09:23:47.850Z,12.65
2019-03-06T09:26:20.712Z,11.03
2019-03-06T09:29:08.464Z,11.80
2019-03-06T09:31:38.381Z,11.23
2019-03-06T09:34:11.253Z,10.87
2019-03-06T09:36:46.977Z,12.07
2019-03-06T09:39:22.518Z,10.73
2019-03-06T09:41:54.869Z,11.73
2019-03-06T09:44:39.736Z,10.77
2019-03-06T09:47:12.295Z,12.03
2019-03-06T09:49:51.021Z,11.30
2019-03-06T09:52:20.932Z,12.10
2019-03-06T09:54:55.044Z,11.30
2019-03-06T09:57:31.020Z,10.72
2019-03-06T10:00:09.984Z,11.30
2019-03-06T10:02:49.017Z,11.33
2019-03-06T10:05:21.739Z,11.17
2019-03-06T10:07:51.666Z,11.77
2019-03-06T10:10:24.406Z,11.90
2019-03-06T10:12:54.337Z,10.87
2019-03-06T10:15:27.204Z,11.87
2019-03-06T10:17:57.134Z,11.57
2019-03-06T10:20:25.986Z,12.13
2019-03-06T10:22:54.871Z,11.37
2019-03-06T10:25:29.991Z,10.53
2019-03-06T10:27:54.348Z,11.20
2019-03-06T10:30:22.632Z,12.10
2019-03-06T10:32:51.084Z,11.13
2019-03-06T10:35:19.442Z,10.70
2019-03-06T10:37:47.984Z,9.28
2019-03-06T10:40:17.909Z,10.40
2019-03-06T10:42:46.188Z,11.45
2019-03-06T10:45:17.833Z,10.40
2019-03-06T10:47:46.488Z,9.18
2019-03-06T10:50:26.255Z,10.33
2019-03-06T10:52:48.164Z,10.03
2019-03-06T10:55:18.102Z,9.03
2019-03-06T10:57:46.379Z,9.43
2019-03-06T11:00:27.579Z,9.25
2019-03-06T11:02:56.996Z,11.13
2019-03-06T11:05:29.965Z,10.00
2019-03-06T11:07:58.968Z,10.53
2019-03-06T11:10:27.791Z,10.03
2019-03-06T11:12:58.070Z,9.60
2019-03-06T11:15:26.419Z,10.40
2019-03-06T11:17:54.698Z,9.20
2019-03-06T11:20:29.672Z,9.73
2019-03-06T11:22:59.297Z,8.97
2019-03-06T11:25:28.046Z,8.70
2019-03-06T11:27:56.378Z,9.23
2019-03-06T11:30:33.413Z,9.30
2019-03-06T11:33:01.802Z,9.70
2019-03-06T11:35:30.244Z,8.73
2019-03-06T11:37:58.570Z,8.47
2019-03-06T11:40:27.008Z,8.55
2019-03-06T11:42:55.314Z,8.38
2019-03-06T11:45:23.648Z,7.83
2019-03-06T11:47:51.999Z,8.20
2019-03-06T11:50:20.326Z,8.23
2019-03-06T11:52:48.676Z,9.63
2019-03-06T11:55:18.185Z,7.65
2019-03-06T11:57:46.519Z,8.33
2019-03-06T12:00:26.323Z,7.73
2019-03-06T12:02:54.677Z,8.15
2019-03-06T12:05:23.532Z,8.73
2019-03-06T12:07:51.801Z,8.03
2019-03-06T12:10:20.929Z,8.40
2019-03-06T12:12:49.214Z,7.70
2019-03-06T12:15:17.469Z,8.70
2019-03-06T12:17:45.755Z,8.50
2019-03-06T12:20:14.039Z,8.33
2019-03-06T12:22:42.314Z,7.50
2019-03-06T12:25:11.819Z,7.77
2019-03-06T12:27:40.103Z,7.03
2019-03-06T12:30:14.073Z,7.33
2019-03-06T12:32:42.352Z,6.80
2019-03-06T12:35:10.777Z,7.27
2019-03-06T12:37:46.654Z,7.40
2019-03-06T12:40:15.131Z,7.80
2019-03-06T12:42:43.421Z,7.57
2019-03-06T12:45:14.298Z,7.20
2019-03-06T12:47:43.515Z,7.43
2019-03-06T12:50:14.965Z,7.37
2019-03-06T12:52:43.256Z,6.57
2019-03-06T12:55:11.980Z,7.10
2019-03-06T12:57:40.242Z,7.87
2019-03-06T13:00:19.804Z,7.35
2019-03-06T13:02:48.086Z,6.80
2019-03-06T13:05:16.591Z,7.87
2019-03-06T13:07:44.856Z,6.95
2019-03-06T13:10:14.875Z,6.90
2019-03-06T13:12:43.415Z,8.20
2019-03-06T13:15:14.678Z,8.20
2019-03-06T13:17:42.958Z,7.33
2019-03-06T13:20:12.682Z,6.50
2019-03-06T13:22:43.988Z,8.00
2019-03-06T13:25:15.504Z,7.20
2019-03-06T13:27:43.783Z,7.30
2019-03-06T13:30:16.300Z,8.93
2019-03-06T13:32:58.207Z,7.60
2019-03-06T13:35:27.545Z,7.50
2019-03-06T13:37:55.800Z,6.93
2019-03-06T13:40:24.084Z,6.70
2019-03-06T13:42:52.356Z,7.40
2019-03-06T13:45:20.766Z,7.70
2019-03-06T13:47:50.960Z,6.72
2019-03-06T13:50:19.021Z,8.30
2019-03-06T13:52:47.291Z,7.50
2019-03-06T13:55:16.617Z,7.00
2019-03-06T13:57:45.472Z,8.30
2019-03-06T14:00:21.809Z,7.03
2019-03-06T14:02:51.233Z,8.27
2019-03-06T14:05:20.436Z,6.87
2019-03-06T14:07:56.010Z,7.87
2019-03-06T14:10:24.352Z,8.23
2019-03-06T14:12:53.101Z,7.00
2019-03-06T14:15:21.536Z,8.80
2019-03-06T14:17:49.816Z,7.67
2019-03-06T14:20:22.400Z,8.30
2019-03-06T14:22:50.838Z,8.70
2019-03-06T14:25:19.176Z,7.40
2019-03-06T14:27:47.776Z,7.80
2019-03-06T14:30:26.652Z,7.95
2019-03-06T14:32:54.941Z,8.73
2019-03-06T14:35:23.679Z,7.25
2019-03-06T14:37:51.950Z,7.72
2019-03-06T14:40:28.400Z,8.05
2019-03-06T14:42:56.843Z,6.57
2019-03-06T14:45:25.242Z,6.77
2019-03-06T14:47:53.525Z,6.90
2019-03-06T14:50:21.787Z,7.87
2019-03-06T14:52:50.060Z,7.50
2019-03-06T14:55:18.792Z,6.50
2019-03-06T14:57:47.059Z,6.57
2019-03-06T15:00:20.047Z,6.60
2019-03-06T15:02:48.390Z,6.10
2019-03-06T15:05:17.707Z,7.03
2019-03-06T15:07:46.048Z,6.67
2019-03-06T15:10:16.628Z,7.10
2019-03-06T15:12:44.906Z,5.43
2019-03-06T15:15:15.990Z,5.40
2019-03-06T15:17:44.350Z,5.87
2019-03-06T15:20:24.604Z,5.57
2019-03-06T15:22:54.109Z,5.72
2019-03-06T15:25:23.739Z,4.53
2019-03-06T15:27:52.013Z,5.10
2019-03-06T15:30:20.551Z,6.00
2019-03-06T15:32:50.549Z,4.70
2019-03-06T15:35:19.109Z,5.77
2019-03-06T15:37:47.396Z,6.00
2019-03-06T15:40:19.433Z,5.50
2019-03-06T15:42:47.861Z,5.30
2019-03-06T15:45:17.761Z,4.50
2019-03-06T15:47:46.067Z,4.23
2019-03-06T15:50:15.291Z,5.30
2019-03-06T15:52:43.603Z,4.72
2019-03-06T15:55:15.704Z,4.63
2019-03-06T15:57:43.970Z,5.40
2019-03-06T16:00:21.915Z,4.72
2019-03-06T16:02:50.355Z,4.65
2019-03-06T16:05:19.514Z,4.10
2019-03-06T16:07:47.910Z,5.23
2019-03-06T16:10:16.341Z,5.70
2019-03-06T16:12:46.099Z,4.55
2019-03-06T16:15:14.504Z,4.40
2019-03-06T16:17:42.791Z,5.17
2019-03-06T16:20:16.072Z,5.12
2019-03-06T16:22:44.997Z,5.20
2019-03-06T16:25:13.756Z,5.27
2019-03-06T16:27:42.037Z,4.50
2019-03-06T16:30:16.650Z,4.10
2019-03-06T16:32:44.931Z,5.10
2019-03-06T16:35:13.452Z,5.40
2019-03-06T16:37:41.799Z,5.23
2019-03-06T16:40:18.548Z,6.42
2019-03-06T16:42:47.643Z,5.40
2019-03-06T16:45:18.729Z,5.40
2019-03-06T16:47:47.006Z,5.83
2019-03-06T16:50:17.434Z,4.70
2019-03-06T16:52:45.928Z,5.75
2019-03-06T16:55:16.675Z,5.58
2019-03-06T16:57:45.182Z,5.55
2019-03-06T17:00:22.551Z,6.00
2019-03-06T17:02:51.097Z,6.17
2019-03-06T17:05:20.505Z,6.45
2019-03-06T17:07:49.808Z,7.10
2019-03-06T17:10:20.010Z,6.55
2019-03-06T17:12:48.623Z,5.72
2019-03-06T17:15:17.992Z,5.33
2019-03-06T17:17:46.432Z,5.70
2019-03-06T17:20:18.020Z,6.53
2019-03-06T17:22:46.693Z,5.70
2019-03-06T17:25:15.208Z,5.80
2019-03-06T17:27:43.826Z,6.00
2019-03-06T17:30:17.728Z,5.70
2019-03-06T17:32:56.862Z,5.83
2019-03-06T17:35:25.532Z,6.00
2019-03-06T17:37:54.146Z,6.30
2019-03-06T17:40:22.413Z,7.20
2019-03-06T17:42:50.764Z,7.45
2019-03-06T17:45:19.029Z,6.70
2019-03-06T17:47:47.299Z,7.47
2019-03-06T17:50:16.772Z,6.83
2019-03-06T17:52:45.127Z,7.22
2019-03-06T17:55:14.532Z,7.10
2019-03-06T17:57:42.812Z,8.17
2019-03-06T18:00:16.842Z,7.77
2019-03-06T18:02:43.671Z,8.23
2019-03-06T18:05:12.129Z,6.90
2019-03-06T18:07:40.404Z,7.43
2019-03-06T18:10:14.536Z,7.20
2019-03-06T18:12:42.805Z,8.47
2019-03-06T18:15:13.211Z,7.50
2019-03-06T18:17:41.647Z,7.55
2019-03-06T18:20:12.564Z,8.23
2019-03-06T18:22:40.849Z,8.73
2019-03-06T18:25:14.344Z,8.45
2019-03-06T18:27:42.725Z,8.43
2019-03-06T18:30:13.529Z,9.18
2019-03-06T18:32:42.160Z,9.83
2019-03-06T18:35:12.479Z,9.60
2019-03-06T18:37:40.777Z,8.57
2019-03-06T18:40:17.847Z,8.57
2019-03-06T18:42:46.165Z,9.83
2019-03-06T18:45:16.280Z,9.43
2019-03-06T18:47:44.583Z,8.00
2019-03-06T18:50:15.662Z,8.77
2019-03-06T18:52:43.938Z,9.10
2019-03-06T18:55:13.850Z,8.70
2019-03-06T18:57:42.112Z,8.97
2019-03-06T19:00:16.075Z,8.70
2019-03-06T19:02:44.368Z,8.67
2019-03-06T19:05:13.086Z,9.17
2019-03-06T19:07:41.344Z,9.47
2019-03-06T19:10:12.812Z,8.27
2019-03-06T19:12:41.082Z,8.73
2019-03-06T19:15:12.605Z,9.83
2019-03-06T19:17:40.874Z,18.33
2019-03-06T19:20:09.429Z,15.07
2019-03-06T19:22:37.713Z,32.65
2019-03-06T19:25:08.639Z,35.03
2019-03-06T19:27:36.912Z,9.08
2019-03-06T19:30:20.609Z,10.90
2019-03-06T19:32:49.036Z,10.40
2019-03-06T19:35:17.950Z,9.90
2019-03-06T19:37:46.293Z,10.03
2019-03-06T19:40:16.108Z,9.25
2019-03-06T19:42:44.560Z,9.15
2019-03-06T19:45:15.080Z,10.20
2019-03-06T19:47:43.350Z,8.40
2019-03-06T19:50:14.420Z,9.07
2019-03-06T19:52:42.691Z,9.93
2019-03-06T19:55:11.700Z,9.03
2019-03-06T19:57:51.687Z,8.80
2019-03-06T20:00:21.091Z,9.83
2019-03-06T20:02:49.625Z,10.47
2019-03-06T20:05:18.436Z,9.43
2019-03-06T20:07:47.225Z,8.90
2019-03-06T20:10:15.523Z,9.57
2019-03-06T20:12:43.985Z,8.60
2019-03-06T20:15:14.403Z,9.33
2019-03-06T20:17:42.688Z,9.90
2019-03-06T20:20:12.900Z,9.20
2019-03-06T20:22:41.247Z,9.83
2019-03-06T20:25:10.581Z,8.97
2019-03-06T20:27:38.981Z,8.77
2019-03-06T20:30:20.567Z,8.58
2019-03-06T20:32:48.897Z,9.73
2019-03-06T20:35:22.266Z,10.17
2019-03-06T20:37:50.769Z,9.17
2019-03-06T20:40:19.074Z,9.87
2019-03-06T20:42:47.700Z,8.63
2019-03-06T20:45:17.114Z,9.30
2019-03-06T20:47:46.538Z,9.53
2019-03-06T20:50:19.426Z,9.80
2019-03-06T20:52:50.099Z,9.10
2019-03-06T20:55:17.830Z,8.85
2019-03-06T20:57:46.107Z,8.53
2019-03-06T21:00:16.149Z,8.90
2019-03-06T21:02:44.428Z,9.70
2019-03-06T21:05:12.711Z,9.30
2019-03-06T21:07:45.036Z,9.73
2019-03-06T21:10:13.999Z,8.37
2019-03-06T21:12:43.859Z,8.48
2019-03-06T21:15:17.066Z,8.37
2019-03-06T21:17:45.360Z,8.50
2019-03-06T21:20:16.132Z,9.23
2019-03-06T21:22:44.417Z,9.70
2019-03-06T21:25:17.277Z,8.90
2019-03-06T21:27:45.640Z,9.53
2019-03-06T21:30:20.570Z,9.40
2019-03-06T21:32:48.848Z,9.40
2019-03-06T21:35:17.188Z,9.00
2019-03-06T21:37:45.489Z,8.70
2019-03-06T21:40:13.750Z,9.50
2019-03-06T21:42:42.039Z,9.27
2019-03-06T21:45:12.118Z,8.20
2019-03-06T21:47:40.384Z,8.63
2019-03-06T21:50:12.053Z,9.17
2019-03-06T21:52:40.361Z,8.80
2019-03-06T21:55:13.681Z,8.53
2019-03-06T21:57:41.958Z,12.23
2019-03-06T22:00:16.358Z,8.53
2019-03-06T22:02:44.983Z,9.90
2019-03-06T22:05:13.325Z,23.70
2019-03-06T22:07:41.610Z,11.28
2019-03-06T22:10:16.200Z,11.33
2019-03-06T22:12:44.395Z,8.83
2019-03-06T22:15:16.597Z,9.10
2019-03-06T22:17:44.861Z,7.90
2019-03-06T22:20:14.837Z,9.10
2019-03-06T22:22:43.179Z,7.70
2019-03-06T22:25:13.098Z,8.43
2019-03-06T22:27:41.370Z,9.10
2019-03-06T22:30:15.530Z,9.87
2019-03-06T22:32:43.805Z,8.60
2019-03-06T22:35:12.094Z,8.63
2019-03-06T22:37:40.366Z,9.20
2019-03-06T22:40:13.959Z,8.30
2019-03-06T22:42:42.228Z,8.93
2019-03-06T22:45:12.839Z,7.20
2019-03-06T22:47:41.153Z,7.70
2019-03-06T22:50:11.847Z,8.20
2019-03-06T22:52:40.123Z,7.62
2019-03-06T22:55:11.002Z,8.30
2019-03-06T22:57:39.270Z,6.97
2019-03-06T23:00:30.869Z,7.30
2019-03-06T23:02:59.287Z,7.07
2019-03-06T23:05:29.077Z,6.33
2019-03-06T23:07:57.353Z,6.90
2019-03-06T23:10:25.614Z,6.67
2019-03-06T23:12:53.906Z,6.08
2019-03-06T23:15:22.170Z,6.87
2019-03-06T23:17:50.447Z,6.45
2019-03-06T23:20:18.723Z,6.80
2019-03-06T23:22:47.007Z,7.08
2019-03-06T23:25:15.290Z,5.65
2019-03-06T23:27:43.566Z,5.73
2019-03-06T23:30:13.467Z,5.63
2019-03-06T23:32:41.743Z,6.00
2019-03-06T23:35:10.085Z,5.12
2019-03-06T23:37:38.368Z,4.87
2019-03-06T23:40:09.659Z,5.73
2019-03-06T23:42:37.930Z,5.60
2019-03-06T23:45:09.381Z,4.93
2019-03-06T23:47:37.831Z,5.87
2019-03-06T23:50:08.145Z,5.50
2019-03-06T23:52:38.055Z,5.73
2019-03-06T23:55:06.385Z,5.92
2019-03-06T23:57:34.754Z,5.70
